createdAt,value
2022-12-08T00:00:29.944Z,1.39
2022-12-08T00:06:08.695Z,1.38
2022-12-08T00:11:14.603Z,1.38
2022-12-08T00:16:18.325Z,1.36
2022-12-08T00:21:22.315Z,1.35
2022-12-08T00:26:26.090Z,1.36
2022-12-08T00:31:29.806Z,1.36
2022-12-08T00:36:34.202Z,1.40
2022-12-08T00:41:56.455Z,1.48
2022-12-08T00:47:00.484Z,1.51
2022-12-08T00:52:04.332Z,1.50
2022-12-08T00:57:08.344Z,1.52
2022-12-08T01:02:12.064Z,1.54
2022-12-08T01:07:15.785Z,1.51
2022-12-08T01:12:19.403Z,1.52
2022-12-08T01:17:23.024Z,1.55
2022-12-08T01:22:26.640Z,1.55
2022-12-08T01:27:30.445Z,1.63
2022-12-08T01:32:34.087Z,1.65
2022-12-08T01:37:37.752Z,1.61
2022-12-08T01:42:41.945Z,1.65
2022-12-08T01:47:51.807Z,1.66
2022-12-08T01:53:04.479Z,1.63
2022-12-08T01:58:23.446Z,1.63
2022-12-08T02:03:59.885Z,1.63
2022-12-08T02:09:05.898Z,1.63
2022-12-08T02:14:13.383Z,1.61
2022-12-08T02:19:31.051Z,1.61
2022-12-08T02:24:46.715Z,1.61
2022-12-08T02:30:08.194Z,1.57
2022-12-08T02:35:22.137Z,1.48
2022-12-08T02:40:40.225Z,1.38
2022-12-08T02:45:57.112Z,1.37
2022-12-08T02:51:01.078Z,1.34
2022-12-08T02:56:56.199Z,1.32
2022-12-08T03:02:48.503Z,1.30
2022-12-08T03:08:13.972Z,1.27
2022-12-08T03:13:29.898Z,1.19
2022-12-08T03:18:44.200Z,1.15
2022-12-08T03:23:54.480Z,1.11
2022-12-08T03:28:59.085Z,1.08
2022-12-08T03:34:04.969Z,1.02
2022-12-08T03:39:08.603Z,1.00
2022-12-08T03:44:12.419Z,0.98
2022-12-08T03:49:16.067Z,1.02
2022-12-08T03:54:19.957Z,1.01
2022-12-08T03:59:23.776Z,0.99
2022-12-08T04:04:27.605Z,1.01
2022-12-08T04:09:31.531Z,1.00
2022-12-08T04:14:35.386Z,1.05
2022-12-08T04:19:41.343Z,1.09
2022-12-08T04:24:44.953Z,1.16
2022-12-08T04:29:48.687Z,1.16
2022-12-08T04:34:52.396Z,1.20
2022-12-08T04:39:56.525Z,1.25
2022-12-08T04:45:00.349Z,1.31
2022-12-08T04:50:06.569Z,1.34
2022-12-08T04:55:10.488Z,1.29
2022-12-08T05:00:14.897Z,1.30
2022-12-08T05:05:18.527Z,1.35
2022-12-08T05:10:22.557Z,1.38
2022-12-08T05:15:26.545Z,1.41
2022-12-08T05:20:30.261Z,1.40
2022-12-08T05:25:34.021Z,1.40
2022-12-08T05:30:37.749Z,1.42
2022-12-08T05:35:41.592Z,1.41
2022-12-08T05:40:45.606Z,1.41
2022-12-08T05:45:50.280Z,1.43
2022-12-08T05:50:54.066Z,1.45
2022-12-08T05:55:58.204Z,1.40
2022-12-08T06:01:02.335Z,1.40
2022-12-08T06:06:06.775Z,1.43
2022-12-08T06:11:11.083Z,1.41
2022-12-08T06:16:14.811Z,1.41
2022-12-08T06:21:20.440Z,1.42
2022-12-08T06:26:24.324Z,1.41
2022-12-08T06:31:28.793Z,1.40
2022-12-08T06:36:33.540Z,1.39
2022-12-08T06:41:57.711Z,1.37
2022-12-08T06:47:01.946Z,1.40
2022-12-08T06:52:05.769Z,1.40
2022-12-08T06:57:09.389Z,1.35
2022-12-08T07:02:13.298Z,1.38
2022-12-08T07:07:16.946Z,1.41
2022-12-08T07:12:20.845Z,1.37
2022-12-08T07:17:25.407Z,1.37
2022-12-08T07:22:29.031Z,1.43
2022-12-08T07:27:32.852Z,1.42
2022-12-08T07:32:39.122Z,1.40
2022-12-08T07:37:43.572Z,1.42
2022-12-08T07:42:47.200Z,1.37
2022-12-08T07:47:51.131Z,1.36
2022-12-08T07:52:55.050Z,1.38
2022-12-08T07:57:58.981Z,1.36
2022-12-08T08:03:03.663Z,1.41
2022-12-08T08:08:07.551Z,1.41
2022-12-08T08:13:11.611Z,1.40
2022-12-08T08:18:15.696Z,1.41
2022-12-08T08:23:19.639Z,1.47
2022-12-08T08:28:23.367Z,1.53
2022-12-08T08:33:28.103Z,1.59
2022-12-08T08:38:32.340Z,1.48
2022-12-08T08:43:38.694Z,1.44
2022-12-08T08:48:42.993Z,1.51
2022-12-08T08:53:46.709Z,1.58
2022-12-08T08:58:53.000Z,1.66
2022-12-08T09:03:58.225Z,1.63
2022-12-08T09:09:02.272Z,1.57
2022-12-08T09:14:07.146Z,1.74
2022-12-08T09:19:11.086Z,1.78
2022-12-08T09:24:17.951Z,2.07
2022-12-08T09:29:22.063Z,4.14
2022-12-08T09:34:26.089Z,5.13
2022-12-08T09:39:30.114Z,6.33
2022-12-08T09:44:50.593Z,8.08
2022-12-08T09:50:36.645Z,7.45
2022-12-08T09:55:57.922Z,5.09
2022-12-08T10:01:01.720Z,3.41
2022-12-08T10:06:41.626Z,2.61
2022-12-08T10:12:09.573Z,2.29
2022-12-08T10:18:01.598Z,2.17
2022-12-08T10:23:14.073Z,1.98
2022-12-08T10:28:17.773Z,2.66
2022-12-08T10:33:24.034Z,3.51
2022-12-08T10:38:36.084Z,3.09
2022-12-08T10:43:50.559Z,2.90
2022-12-08T10:49:13.648Z,2.70
2022-12-08T10:54:39.787Z,2.29
2022-12-08T10:59:43.605Z,2.03
2022-12-08T11:04:48.251Z,1.84
2022-12-08T11:09:58.533Z,1.62
2022-12-08T11:15:05.678Z,1.51
2022-12-08T11:20:09.642Z,1.65
2022-12-08T11:25:29.237Z,1.76
2022-12-08T11:30:38.027Z,1.73
2022-12-08T11:35:46.177Z,1.63
2022-12-08T11:41:15.861Z,1.76
2022-12-08T11:46:40.856Z,1.81
2022-12-08T11:52:29.645Z,1.78
2022-12-08T11:57:33.808Z,1.68
2022-12-08T12:02:47.314Z,1.74
2022-12-08T12:08:25.300Z,1.71
2022-12-08T12:14:26.761Z,1.61
2022-12-08T12:19:39.506Z,1.57
2022-12-08T12:24:49.182Z,1.54
2022-12-08T12:30:05.031Z,1.58
2022-12-08T12:35:27.032Z,1.65
2022-12-08T12:40:42.575Z,1.59
2022-12-08T12:45:46.958Z,1.53
2022-12-08T12:50:52.901Z,1.46
2022-12-08T12:56:01.092Z,1.39
2022-12-08T13:01:11.009Z,1.35
2022-12-08T13:06:24.285Z,1.17
2022-12-08T13:11:28.162Z,0.99
2022-12-08T13:16:35.895Z,0.89
2022-12-08T13:21:41.016Z,0.85
2022-12-08T13:27:04.110Z,0.83
2022-12-08T13:32:07.942Z,0.84
2022-12-08T13:37:11.573Z,0.77
2022-12-08T13:42:27.990Z,0.76
2022-12-08T13:47:59.636Z,0.75
2022-12-08T13:53:49.529Z,0.76
2022-12-08T13:58:39.243Z,0.76
2022-12-08T14:09:29.412Z,0.83
2022-12-08T14:15:01.656Z,0.85
2022-12-08T14:20:30.573Z,0.86
2022-12-08T14:25:36.370Z,0.94
2022-12-08T14:30:40.892Z,1.04
2022-12-08T14:35:53.694Z,1.15
2022-12-08T14:41:08.266Z,1.24
2022-12-08T14:46:34.075Z,1.31
2022-12-08T14:51:41.302Z,1.38
2022-12-08T14:56:55.624Z,1.43
2022-12-08T15:02:24.830Z,1.49
2022-12-08T15:07:36.098Z,1.53
2022-12-08T15:12:39.736Z,1.59
2022-12-08T15:18:16.271Z,1.67
2022-12-08T15:23:25.011Z,1.71
2022-12-08T15:28:30.688Z,1.75
2022-12-08T15:33:36.872Z,1.79
2022-12-08T15:38:43.798Z,1.79
2022-12-08T15:43:48.138Z,1.83
2022-12-08T15:48:57.809Z,1.85
2022-12-08T15:54:04.277Z,1.85
2022-12-08T15:59:18.802Z,1.88
2022-12-08T16:09:47.428Z,1.86
2022-12-08T16:20:18.342Z,1.90
2022-12-08T16:25:23.394Z,1.94
2022-12-08T16:30:27.261Z,1.95
2022-12-08T16:35:31.689Z,1.98
2022-12-08T16:40:55.223Z,1.99
2022-12-08T16:45:59.650Z,1.96
2022-12-08T16:51:04.966Z,1.95
2022-12-08T16:56:08.690Z,1.95
2022-12-08T17:01:16.198Z,1.99
2022-12-08T17:06:21.456Z,2.01
2022-12-08T17:11:28.714Z,2.00
2022-12-08T17:16:32.392Z,2.01
2022-12-08T17:21:36.592Z,2.04
2022-12-08T17:26:40.748Z,2.07
2022-12-08T17:31:44.724Z,2.09
2022-12-08T17:36:48.406Z,2.12
2022-12-08T17:41:52.223Z,2.13
2022-12-08T17:46:56.150Z,2.14
2022-12-08T17:52:04.095Z,2.18
2022-12-08T17:57:07.800Z,2.19
2022-12-08T18:02:12.541Z,2.23
2022-12-08T18:07:16.263Z,2.25
2022-12-08T18:12:23.637Z,2.22
2022-12-08T18:17:27.917Z,2.21
2022-12-08T18:22:31.735Z,2.26
2022-12-08T18:27:42.749Z,2.29
2022-12-08T18:32:47.192Z,2.35
2022-12-08T18:37:51.959Z,2.39
2022-12-08T18:42:56.454Z,2.39
2022-12-08T18:48:01.008Z,2.44
2022-12-08T18:53:04.620Z,2.49
2022-12-08T18:58:11.546Z,2.57
2022-12-08T19:03:15.878Z,2.61
2022-12-08T19:08:22.549Z,2.61
2022-12-08T19:13:28.428Z,2.64
2022-12-08T19:18:32.211Z,2.67
2022-12-08T19:23:36.581Z,2.74
2022-12-08T19:28:41.951Z,2.78
2022-12-08T19:33:45.549Z,2.74
2022-12-08T19:39:08.444Z,2.73
2022-12-08T19:44:49.017Z,2.72
2022-12-08T19:50:18.058Z,2.79
2022-12-08T19:55:23.977Z,2.88
2022-12-08T20:00:32.799Z,2.93
2022-12-08T20:05:40.478Z,2.95
2022-12-08T20:10:46.050Z,2.98
2022-12-08T20:15:51.680Z,3.00
2022-12-08T20:20:57.300Z,3.00
2022-12-08T20:26:07.727Z,3.04
2022-12-08T20:31:27.024Z,3.11
2022-12-08T20:36:32.424Z,3.14
2022-12-08T20:41:39.286Z,3.06
2022-12-08T20:46:49.287Z,3.03
2022-12-08T20:51:53.716Z,3.01
2022-12-08T20:56:58.228Z,2.93
2022-12-08T21:02:03.087Z,2.81
2022-12-08T21:07:09.316Z,2.77
2022-12-08T21:12:13.899Z,2.69
2022-12-08T21:17:19.031Z,2.60
2022-12-08T21:22:22.994Z,2.47
2022-12-08T21:27:27.251Z,2.34
2022-12-08T21:32:31.142Z,2.20
2022-12-08T21:37:36.138Z,2.17
2022-12-08T21:42:46.540Z,2.11
2022-12-08T21:47:51.210Z,2.02
2022-12-08T21:52:55.606Z,1.95
2022-12-08T21:58:01.273Z,1.91
2022-12-08T22:03:07.152Z,1.99
2022-12-08T22:08:10.928Z,2.12
2022-12-08T22:13:15.150Z,2.19
2022-12-08T22:18:19.485Z,2.21
2022-12-08T22:23:23.546Z,2.19
2022-12-08T22:28:32.297Z,2.19
2022-12-08T22:33:36.112Z,2.19
2022-12-08T22:38:41.074Z,2.17
2022-12-08T22:43:46.853Z,2.24
2022-12-08T22:48:53.181Z,2.30
2022-12-08T22:53:57.041Z,2.29
2022-12-08T22:59:00.988Z,2.33
2022-12-08T23:04:05.783Z,2.40
2022-12-08T23:09:09.500Z,2.36
2022-12-08T23:14:13.567Z,2.31
2022-12-08T23:19:17.521Z,2.40
2022-12-08T23:24:21.722Z,2.38
2022-12-08T23:29:26.015Z,2.38
2022-12-08T23:34:29.699Z,2.30
2022-12-08T23:39:33.396Z,2.34
2022-12-08T23:44:37.654Z,2.31
2022-12-08T23:49:42.505Z,2.38
2022-12-08T23:54:46.999Z,2.42
2022-12-08T23:59:50.921Z,2.36
